Time;durP1;ratioP1;P1;durP2;ratioP2;P2;SDS_P1;SDS_P2;PMS_P1;PMS_P2;Temp;Humidity;BMP_temperature;BMP_pressure;BME280_temperature;BME280_humidity;BME280_pressure;Samples;Min_cycle;Max_cycle;Signal;HPM_P1;HPM_P2
2021/04/10 00:00:42;;;;;;;17.95;6.18;;;;;;;;;;5053625;28;20366;-67
2021/04/10 00:03:09;;;;;;;15.43;6.82;;;;;;;;;;5054836;28;20017;-67
2021/04/10 00:05:35;;;;;;;14.70;6.63;;;;;;;;;;5054249;28;20045;-68
2021/04/10 00:08:01;;;;;;;14.40;6.82;;;;;;;;;;5054464;28;20021;-67
2021/04/10 00:10:29;;;;;;;15.05;7.32;;;;;;;;;;5053587;28;20021;-67
2021/04/10 00:12:55;;;;;;;13.85;7.60;;;;;;;;;;5053807;28;20472;-68
2021/04/10 00:15:22;;;;;;;13.88;6.68;;;;;;;;;;5054960;28;20061;-67
2021/04/10 00:17:48;;;;;;;14.40;5.68;;;;;;;;;;5053401;28;20363;-68
2021/04/10 00:20:15;;;;;;;16.67;6.65;;;;;;;;;;5054550;28;20104;-68
2021/04/10 00:22:40;;;;;;;12.90;6.72;;;;;;;;;;5054416;28;20025;-68
2021/04/10 00:25:06;;;;;;;14.98;6.78;;;;;;;;;;5054498;28;20370;-67
2021/04/10 00:27:33;;;;;;;14.82;6.53;;;;;;;;;;5036518;28;20016;-67
2021/04/10 00:29:59;;;;;;;11.25;5.70;;;;;;;;;;5053550;28;20029;-67
2021/04/10 00:32:24;;;;;;;17.73;7.40;;;;;;;;;;5054383;28;20032;-67
2021/04/10 00:34:50;;;;;;;11.40;6.20;;;;;;;;;;5054056;28;20028;-67
2021/04/10 00:37:16;;;;;;;15.93;6.82;;;;;;;;;;5053609;28;20063;-67
2021/04/10 00:39:42;;;;;;;19.73;6.93;;;;;;;;;;5054314;28;20071;-68
2021/04/10 00:42:08;;;;;;;16.58;6.93;;;;;;;;;;5054060;28;20370;-67
2021/04/10 00:44:34;;;;;;;14.93;7.32;;;;;;;;;;5054228;28;20025;-67
2021/04/10 00:47:00;;;;;;;13.23;6.47;;;;;;;;;;5052888;28;20497;-67
2021/04/10 00:49:27;;;;;;;14.63;7.15;;;;;;;;;;5054171;28;20020;-67
2021/04/10 00:51:53;;;;;;;16.27;6.50;;;;;;;;;;5053886;28;20040;-67
2021/04/10 00:54:18;;;;;;;11.43;6.72;;;;;;;;;;5036077;28;20537;-67
2021/04/10 00:56:44;;;;;;;11.48;6.57;;;;;;;;;;5052335;28;20116;-67
2021/04/10 00:59:09;;;;;;;11.80;6.70;;;;;;;;;;5052646;28;20052;-67
2021/04/10 01:01:37;;;;;;;15.60;7.18;;;;;;;;;;5052511;28;20428;-67
2021/04/10 01:04:03;;;;;;;17.35;7.05;;;;;;;;;;5036051;28;20100;-67
2021/04/10 01:06:30;;;;;;;15.50;6.75;;;;;;;;;;5052040;28;20108;-67
2021/04/10 01:08:56;;;;;;;15.52;6.93;;;;;;;;;;5052032;28;20473;-67
2021/04/10 01:11:33;;;;;;;17.08;7.15;;;;;;;;;;5052464;28;20358;-67
2021/04/10 01:13:59;;;;;;;13.73;6.53;;;;;;;;;;5052053;28;20049;-67
2021/04/10 01:16:30;;;;;;;17.27;7.10;;;;;;;;;;5052248;28;20021;-68
2021/04/10 01:19:06;;;;;;;15.32;6.80;;;;;;;;;;5052577;28;20040;-67
2021/04/10 01:21:43;;;;;;;14.73;7.40;;;;;;;;;;5052434;28;20021;-68
2021/04/10 01:24:09;;;;;;;14.85;6.53;;;;;;;;;;5052169;28;20021;-67
2021/04/10 01:26:52;;;;;;;13.38;6.95;;;;;;;;;;5053181;28;20094;-67
2021/04/10 01:29:20;;;;;;;14.13;7.13;;;;;;;;;;5052199;28;20024;-67
2021/04/10 01:31:49;;;;;;;15.93;7.00;;;;;;;;;;5035324;28;20075;-67
2021/04/10 01:34:18;;;;;;;19.33;7.95;;;;;;;;;;5053096;28;20523;-67
2021/04/10 01:36:44;;;;;;;;;;;;;;;;;;5052817;28;20392;-67
2021/04/10 01:39:11;;;;;;;16.20;7.25;;;;;;;;;;5053147;28;20319;-67
2021/04/10 01:41:40;;;;;;;19.27;7.05;;;;;;;;;;5053136;28;20039;-68
2021/04/10 01:44:07;;;;;;;15.82;7.03;;;;;;;;;;5052917;28;20372;-67
2021/04/10 01:46:34;;;;;;;12.20;7.22;;;;;;;;;;5053117;28;20025;-67
2021/04/10 01:49:01;;;;;;;16.98;7.20;;;;;;;;;;5052700;28;20021;-67
2021/04/10 01:51:26;;;;;;;15.30;7.38;;;;;;;;;;5053073;28;20020;-67
2021/04/10 01:53:53;;;;;;;25.77;9.20;;;;;;;;;;5051438;28;20035;-68
2021/04/10 01:56:20;;;;;;;15.75;7.18;;;;;;;;;;5051682;28;20017;-68
2021/04/10 01:58:47;;;;;;;18.67;7.95;;;;;;;;;;5052658;28;20027;-67
2021/04/10 02:01:14;;;;;;;13.70;7.60;;;;;;;;;;5052788;28;20021;-68
2021/04/10 02:03:42;;;;;;;13.52;7.50;;;;;;;;;;5052636;28;20028;-67
2021/04/10 02:06:08;;;;;;;18.23;7.00;;;;;;;;;;5050784;28;20107;-68
2021/04/10 02:08:35;;;;;;;17.48;7.47;;;;;;;;;;5051228;28;20028;-67
2021/04/10 02:11:01;;;;;;;15.18;7.30;;;;;;;;;;5051433;28;20432;-68
2021/04/10 02:13:29;;;;;;;14.48;7.28;;;;;;;;;;5051229;28;20041;-68
2021/04/10 02:15:55;;;;;;;13.68;7.20;;;;;;;;;;5051402;28;20021;-67
2021/04/10 02:18:21;;;;;;;15.57;7.05;;;;;;;;;;5051421;28;20351;-67
2021/04/10 02:20:47;;;;;;;15.20;7.57;;;;;;;;;;5050995;28;20016;-67
2021/04/10 02:23:14;;;;;;;14.45;6.93;;;;;;;;;;5052536;28;20020;-68
2021/04/10 02:25:40;;;;;;;14.32;7.80;;;;;;;;;;5052552;28;20078;-67
2021/04/10 02:28:06;;;;;;;16.05;6.93;;;;;;;;;;5051003;28;20759;-68
2021/04/10 02:30:33;;;;;;;16.90;7.28;;;;;;;;;;5053793;28;20021;-68
2021/04/10 02:33:08;;;;;;;17.70;7.75;;;;;;;;;;5056177;28;20013;-67
2021/04/10 02:35:39;;;;;;;16.70;8.48;;;;;;;;;;5055077;28;20025;-67
2021/04/10 02:38:06;;;;;;;14.77;7.20;;;;;;;;;;5055183;28;20059;-67
2021/04/10 02:40:35;;;;;;;14.43;7.07;;;;;;;;;;5056560;28;20107;-68
2021/04/10 02:43:01;;;;;;;;;;;;;;;;;;5038948;28;20067;-67
2021/04/10 02:45:28;;;;;;;13.88;7.47;;;;;;;;;;5056317;28;19909;-68
2021/04/10 02:47:58;;;;;;;17.75;7.82;;;;;;;;;;5056350;28;20028;-68
2021/04/10 02:50:26;;;;;;;17.65;8.95;;;;;;;;;;5056342;28;20062;-68
2021/04/10 02:52:54;;;;;;;14.68;7.72;;;;;;;;;;5055978;28;20013;-68
2021/04/10 02:55:20;;;;;;;20.02;7.65;;;;;;;;;;5056084;28;20026;-68
2021/04/10 02:57:47;;;;;;;21.10;7.90;;;;;;;;;;5038354;28;20023;-68
2021/04/10 03:00:16;;;;;;;14.65;7.47;;;;;;;;;;5056038;28;20024;-68
2021/04/10 03:02:42;;;;;;;15.57;8.13;;;;;;;;;;5054818;28;20092;-68
2021/04/10 03:05:10;;;;;;;21.42;8.02;;;;;;;;;;5054727;28;20019;-68
2021/04/10 03:07:37;;;;;;;16.42;7.65;;;;;;;;;;5056234;28;20448;-68
2021/04/10 03:10:03;;;;;;;24.80;9.40;;;;;;;;;;5054646;28;20546;-68
2021/04/10 03:12:29;;;;;;;18.33;8.52;;;;;;;;;;5054374;28;20389;-68
2021/04/10 03:14:55;;;;;;;17.95;9.40;;;;;;;;;;5054195;28;20037;-68
2021/04/10 03:17:24;;;;;;;15.57;8.43;;;;;;;;;;5055870;28;20385;-68
2021/04/10 03:19:51;;;;;;;19.60;9.48;;;;;;;;;;5038194;28;20017;-68
2021/04/10 03:22:16;;;;;;;19.65;9.45;;;;;;;;;;5054557;28;20029;-68
2021/04/10 03:24:42;;;;;;;19.58;9.82;;;;;;;;;;5054330;28;20024;-68
2021/04/10 03:27:09;;;;;;;22.38;10.00;;;;;;;;;;5054072;28;20021;-68
2021/04/10 03:29:35;;;;;;;20.50;8.75;;;;;;;;;;5055414;28;20024;-68
2021/04/10 03:32:02;;;;;;;18.45;8.43;;;;;;;;;;5054257;28;20017;-68
2021/04/10 03:34:28;;;;;;;17.33;8.27;;;;;;;;;;5054359;28;20029;-67
2021/04/10 03:36:54;;;;;;;18.30;7.70;;;;;;;;;;5054510;28;20071;-68
2021/04/10 03:39:22;;;;;;;23.08;9.40;;;;;;;;;;5055389;28;20421;-68
2021/04/10 03:41:47;;;;;;;19.23;8.70;;;;;;;;;;5054407;28;20017;-68
2021/04/10 03:44:14;;;;;;;22.92;8.93;;;;;;;;;;5054085;28;20028;-67
2021/04/10 03:46:40;;;;;;;20.45;9.55;;;;;;;;;;5053819;28;20025;-67
2021/04/10 03:49:05;;;;;;;16.67;8.88;;;;;;;;;;5053893;28;20071;-67
2021/04/10 03:51:31;;;;;;;20.48;8.82;;;;;;;;;;5055204;28;20382;-68
2021/04/10 03:53:58;;;;;;;18.58;9.57;;;;;;;;;;5053787;28;20048;-68
2021/04/10 03:56:24;;;;;;;22.52;9.32;;;;;;;;;;5053813;28;20059;-68
2021/04/10 03:58:49;;;;;;;16.40;8.57;;;;;;;;;;5054716;28;20027;-68
2021/04/10 04:01:15;;;;;;;19.65;8.52;;;;;;;;;;5037005;28;20017;-67
2021/04/10 04:03:42;;;;;;;16.80;8.02;;;;;;;;;;5054906;28;20014;-68
2021/04/10 04:06:08;;;;;;;17.58;8.13;;;;;;;;;;5052980;28;20143;-68
2021/04/10 04:08:33;;;;;;;16.67;8.52;;;;;;;;;;5054920;28;20489;-68
2021/04/10 04:10:59;;;;;;;15.95;8.50;;;;;;;;;;5053246;28;20053;-68
2021/04/10 04:13:26;;;;;;;18.75;8.48;;;;;;;;;;5054349;28;20037;-68
2021/04/10 04:15:52;;;;;;;15.43;7.93;;;;;;;;;;5053425;28;20045;-67
2021/04/10 04:18:18;;;;;;;24.65;8.52;;;;;;;;;;5053576;28;20100;-68
2021/04/10 04:20:43;;;;;;;20.02;8.45;;;;;;;;;;5054479;28;20021;-68
2021/04/10 04:23:09;;;;;;;20.20;8.65;;;;;;;;;;5054508;28;20488;-68
2021/04/10 04:25:36;;;;;;;18.40;9.45;;;;;;;;;;5054443;28;20028;-68
2021/04/10 04:28:02;;;;;;;19.95;8.43;;;;;;;;;;5053037;28;20074;-68
2021/04/10 04:30:27;;;;;;;17.08;8.63;;;;;;;;;;5054581;28;20017;-68
2021/04/10 04:32:54;;;;;;;17.05;9.13;;;;;;;;;;5052938;28;20520;-68
2021/04/10 04:35:19;;;;;;;19.20;8.65;;;;;;;;;;5053981;28;20532;-68
2021/04/10 04:37:45;;;;;;;19.10;9.60;;;;;;;;;;5053040;28;20025;-68
2021/04/10 04:40:11;;;;;;;22.88;8.98;;;;;;;;;;5053465;28;20381;-68
2021/04/10 04:42:37;;;;;;;18.33;9.00;;;;;;;;;;5053924;28;20092;-68
2021/04/10 04:45:05;;;;;;;26.52;10.30;;;;;;;;;;5054062;28;20056;-67
2021/04/10 04:47:32;;;;;;;20.83;9.95;;;;;;;;;;5054156;28;20505;-68
2021/04/10 04:49:57;;;;;;;21.65;9.68;;;;;;;;;;5052758;28;20482;-68
2021/04/10 04:52:22;;;;;;;23.15;9.10;;;;;;;;;;5052699;28;20024;-68
2021/04/10 04:54:48;;;;;;;20.02;10.82;;;;;;;;;;5052842;28;20079;-67
2021/04/10 04:57:13;;;;;;;20.77;10.93;;;;;;;;;;5053731;28;20362;-67
2021/04/10 04:59:38;;;;;;;21.48;9.80;;;;;;;;;;5052619;28;20064;-68
2021/04/10 05:02:04;;;;;;;20.67;10.38;;;;;;;;;;5052619;28;20025;-67
2021/04/10 05:04:29;;;;;;;22.60;9.90;;;;;;;;;;5053866;28;20028;-68
2021/04/10 05:06:54;;;;;;;26.42;10.93;;;;;;;;;;5052919;28;20016;-67
2021/04/10 05:09:20;;;;;;;20.38;9.43;;;;;;;;;;5053658;28;20013;-67
2021/04/10 05:11:45;;;;;;;20.83;10.75;;;;;;;;;;5053557;28;20028;-67
2021/04/10 05:14:10;;;;;;;30.45;10.88;;;;;;;;;;5052085;28;20080;-67
2021/04/10 05:16:36;;;;;;;26.63;12.20;;;;;;;;;;5035520;28;20044;-67
2021/04/10 05:19:01;;;;;;;30.42;14.15;;;;;;;;;;5052240;28;20043;-68
2021/04/10 05:21:27;;;;;;;22.67;11.18;;;;;;;;;;5052321;28;20017;-68
2021/04/10 05:23:52;;;;;;;20.55;10.48;;;;;;;;;;5052030;28;20025;-67
2021/04/10 05:26:17;;;;;;;37.00;12.23;;;;;;;;;;5053240;28;20489;-67
2021/04/10 05:28:43;;;;;;;23.17;11.02;;;;;;;;;;5051901;28;20025;-67
2021/04/10 05:31:08;;;;;;;24.02;10.48;;;;;;;;;;5053174;28;20017;-67
2021/04/10 05:33:33;;;;;;;23.15;10.73;;;;;;;;;;5053453;28;20053;-67
2021/04/10 05:35:59;;;;;;;25.55;11.27;;;;;;;;;;5034466;28;20024;-67
2021/04/10 05:38:24;;;;;;;27.90;11.27;;;;;;;;;;5052018;28;20036;-67
2021/04/10 05:40:50;;;;;;;26.13;11.15;;;;;;;;;;5051660;28;20044;-67
2021/04/10 05:43:16;;;;;;;23.98;10.70;;;;;;;;;;5051724;28;20374;-67
2021/04/10 05:45:41;;;;;;;21.83;10.98;;;;;;;;;;5053106;28;20020;-67
2021/04/10 05:48:07;;;;;;;27.25;10.95;;;;;;;;;;5035001;28;20488;-66
2021/04/10 05:50:32;;;;;;;27.92;11.70;;;;;;;;;;5051732;28;20013;-67
2021/04/10 05:52:58;;;;;;;22.50;11.93;;;;;;;;;;5052681;28;20023;-67
2021/04/10 05:55:23;;;;;;;22.02;11.68;;;;;;;;;;5052904;28;20103;-67
2021/04/10 05:57:48;;;;;;;29.48;11.90;;;;;;;;;;5052734;28;20020;-67
2021/04/10 06:00:14;;;;;;;21.98;11.90;;;;;;;;;;5051468;28;20025;-67
2021/04/10 06:02:40;;;;;;;24.23;11.55;;;;;;;;;;5052664;28;20422;-67
2021/04/10 06:05:05;;;;;;;18.58;11.00;;;;;;;;;;5052351;28;20025;-67
2021/04/10 06:07:31;;;;;;;27.58;10.90;;;;;;;;;;5051007;28;20488;-67
2021/04/10 06:09:56;;;;;;;28.63;11.35;;;;;;;;;;5051378;28;20035;-67
2021/04/10 06:12:22;;;;;;;20.42;10.27;;;;;;;;;;5051154;28;20025;-67
2021/04/10 06:14:48;;;;;;;17.15;9.80;;;;;;;;;;5051478;28;20071;-67
2021/04/10 06:17:14;;;;;;;21.88;11.25;;;;;;;;;;5051423;28;20473;-67
2021/04/10 06:19:40;;;;;;;24.42;10.75;;;;;;;;;;5052773;28;20071;-67
2021/04/10 06:22:05;;;;;;;21.35;10.20;;;;;;;;;;5051104;28;20429;-67
2021/04/10 06:24:30;;;;;;;24.08;11.18;;;;;;;;;;5052559;28;20088;-67
2021/04/10 06:26:56;;;;;;;22.88;11.60;;;;;;;;;;5052136;28;20056;-67
2021/04/10 06:29:22;;;;;;;21.98;10.90;;;;;;;;;;5052509;28;20024;-67
2021/04/10 06:31:47;;;;;;;19.00;9.10;;;;;;;;;;5051245;28;20469;-67
2021/04/10 06:34:12;;;;;;;18.10;9.50;;;;;;;;;;5050793;28;20033;-67
2021/04/10 06:36:38;;;;;;;19.73;9.32;;;;;;;;;;5050292;28;20017;-67
2021/04/10 06:39:03;;;;;;;22.15;8.98;;;;;;;;;;5052315;28;20025;-67
2021/04/10 06:41:29;;;;;;;26.40;10.77;;;;;;;;;;5034469;28;20542;-67
2021/04/10 06:43:54;;;;;;;19.13;9.05;;;;;;;;;;5050982;28;20024;-68
2021/04/10 06:46:19;;;;;;;27.80;10.68;;;;;;;;;;5052636;28;20009;-67
2021/04/10 06:48:45;;;;;;;15.52;8.73;;;;;;;;;;5034378;28;20116;-67
2021/04/10 06:51:12;;;;;;;21.45;9.57;;;;;;;;;;5050842;28;20555;-67
2021/04/10 06:53:41;;;;;;;20.17;9.20;;;;;;;;;;5051243;28;20018;-68
2021/04/10 06:56:08;;;;;;;21.65;9.02;;;;;;;;;;5052080;28;20010;-67
2021/04/10 06:58:44;;;;;;;15.35;8.43;;;;;;;;;;5051916;28;20100;-67
2021/04/10 07:01:10;;;;;;;17.17;8.80;;;;;;;;;;5052140;28;20110;-67
2021/04/10 07:03:35;;;;;;;22.65;8.60;;;;;;;;;;5051043;28;20497;-67
2021/04/10 07:06:01;;;;;;;24.20;9.00;;;;;;;;;;5051531;28;20029;-67
2021/04/10 07:08:27;;;;;;;17.98;8.65;;;;;;;;;;5050885;28;20100;-67
2021/04/10 07:10:52;;;;;;;14.30;7.93;;;;;;;;;;5050436;28;20112;-67
2021/04/10 07:13:18;;;;;;;15.80;7.68;;;;;;;;;;5051970;28;20461;-67
2021/04/10 07:15:43;;;;;;;19.90;6.78;;;;;;;;;;5050974;28;20033;-68
2021/04/10 07:18:09;;;;;;;12.90;6.32;;;;;;;;;;5055090;28;20012;-68
2021/04/10 07:20:36;;;;;;;13.55;4.60;;;;;;;;;;5054404;28;20039;-68
2021/04/10 07:23:03;;;;;;;15.10;5.45;;;;;;;;;;5054418;28;20055;-68
2021/04/10 07:25:29;;;;;;;9.98;4.00;;;;;;;;;;5055615;28;20017;-68
2021/04/10 07:27:55;;;;;;;11.38;4.38;;;;;;;;;;5055404;28;20010;-68
2021/04/10 07:30:20;;;;;;;8.48;3.70;;;;;;;;;;5055877;28;20075;-68
2021/04/10 07:32:46;;;;;;;9.18;3.53;;;;;;;;;;5037361;28;20024;-68
2021/04/10 07:35:13;;;;;;;6.78;2.47;;;;;;;;;;5054943;28;20044;-68
2021/04/10 07:37:40;;;;;;;8.50;3.60;;;;;;;;;;5055485;28;20533;-68
2021/04/10 07:40:07;;;;;;;17.13;3.50;;;;;;;;;;5053954;28;20112;-67
2021/04/10 07:42:35;;;;;;;6.85;3.03;;;;;;;;;;5055436;28;20414;-68
2021/04/10 07:45:00;;;;;;;4.57;2.85;;;;;;;;;;5055221;28;20089;-68
2021/04/10 07:47:35;;;;;;;8.27;3.25;;;;;;;;;;5055404;28;20544;-68
2021/04/10 07:50:10;;;;;;;5.40;2.67;;;;;;;;;;5055233;28;20021;-68
2021/04/10 07:52:35;;;;;;;6.78;2.58;;;;;;;;;;5055013;28;20580;-67
2021/04/10 07:55:00;;;;;;;7.68;2.47;;;;;;;;;;5053476;28;20045;-67
2021/04/10 07:57:26;;;;;;;7.28;2.90;;;;;;;;;;5055157;28;20507;-68
2021/04/10 07:59:53;;;;;;;9.93;2.60;;;;;;;;;;5055061;28;20024;-68
2021/04/10 08:02:20;;;;;;;7.55;2.65;;;;;;;;;;5054134;28;20075;-67
2021/04/10 08:04:55;;;;;;;7.53;3.20;;;;;;;;;;5054652;28;20021;-68
2021/04/10 08:07:24;;;;;;;8.32;2.85;;;;;;;;;;5054435;28;20103;-67
2021/04/10 08:09:55;;;;;;;34.33;3.08;;;;;;;;;;5055029;28;20044;-68
2021/04/10 08:12:25;;;;;;;11.48;1.90;;;;;;;;;;5054743;28;20049;-67
2021/04/10 08:14:51;;;;;;;7.97;1.95;;;;;;;;;;5054449;28;20027;-68
2021/04/10 08:17:31;;;;;;;7.32;2.28;;;;;;;;;;5054759;28;20470;-68
2021/04/10 08:19:57;;;;;;;3.30;1.77;;;;;;;;;;5054473;28;20025;-68
2021/04/10 08:22:22;;;;;;;7.63;2.15;;;;;;;;;;5036848;28;20020;-67
2021/04/10 08:24:47;;;;;;;7.82;2.00;;;;;;;;;;5054178;28;20448;-68
2021/04/10 08:27:14;;;;;;;15.50;2.33;;;;;;;;;;5052950;28;20096;-68
2021/04/10 08:29:42;;;;;;;10.75;2.00;;;;;;;;;;5054587;28;20013;-68
2021/04/10 08:32:08;;;;;;;12.65;2.35;;;;;;;;;;5054374;28;20031;-67
2021/04/10 08:34:33;;;;;;;15.13;2.30;;;;;;;;;;5052933;28;20489;-67
2021/04/10 08:37:00;;;;;;;6.75;1.98;;;;;;;;;;5052700;28;20017;-68
2021/04/10 08:39:27;;;;;;;11.45;2.22;;;;;;;;;;5036530;28;20013;-68
2021/04/10 08:41:54;;;;;;;3.58;1.85;;;;;;;;;;5053374;28;20024;-68
2021/04/10 08:44:22;;;;;;;10.98;1.85;;;;;;;;;;5054185;28;20481;-68
2021/04/10 08:46:48;;;;;;;9.50;2.70;;;;;;;;;;5053996;28;20039;-68
2021/04/10 08:49:15;;;;;;;8.05;1.83;;;;;;;;;;5052590;28;20021;-68
2021/04/10 08:51:41;;;;;;;8.52;2.28;;;;;;;;;;5053313;28;20100;-68
2021/04/10 08:54:11;;;;;;;5.43;1.83;;;;;;;;;;5052567;28;20489;-67
2021/04/10 08:56:36;;;;;;;;;;;;;;;;;;5054227;28;20063;-68
2021/04/10 08:59:11;;;;;;;8.00;1.90;;;;;;;;;;5053909;28;19909;-68
2021/04/10 09:01:37;;;;;;;5.18;1.70;;;;;;;;;;5052586;28;20017;-68
2021/04/10 09:04:03;;;;;;;7.72;2.17;;;;;;;;;;5053640;28;20484;-68
2021/04/10 09:06:29;;;;;;;7.85;2.13;;;;;;;;;;5052078;28;20040;-68
2021/04/10 09:09:04;;;;;;;14.50;2.50;;;;;;;;;;5053515;28;20021;-67
2021/04/10 09:11:29;;;;;;;6.45;2.60;;;;;;;;;;5053768;28;20048;-68
2021/04/10 09:13:54;;;;;;;6.78;2.25;;;;;;;;;;5053382;28;20139;-68
2021/04/10 09:16:23;;;;;;;11.07;2.53;;;;;;;;;;5053398;28;20024;-68
2021/04/10 09:18:51;;;;;;;6.63;2.35;;;;;;;;;;5053604;28;20020;-68
2021/04/10 09:21:16;;;;;;;5.78;3.08;;;;;;;;;;5053435;28;20501;-68
2021/04/10 09:23:46;;;;;;;4.82;2.05;;;;;;;;;;5053531;28;20017;-68
2021/04/10 09:26:13;;;;;;;5.75;2.22;;;;;;;;;;5052099;28;20021;-68
2021/04/10 09:28:49;;;;;;;35.30;13.32;;;;;;;;;;5053086;28;20013;-67
2021/04/10 09:31:34;;;;;;;30.23;12.60;;;;;;;;;;5053258;28;20013;-67
2021/04/10 09:34:00;;;;;;;48.97;21.52;;;;;;;;;;5053114;28;20025;-68
2021/04/10 09:36:35;;;;;;;21.65;9.38;;;;;;;;;;5052611;28;20044;-68
2021/04/10 09:39:00;;;;;;;111.88;44.05;;;;;;;;;;5052653;28;20126;-68
2021/04/10 09:41:45;;;;;;;26.77;11.32;;;;;;;;;;5051487;28;20492;-67
2021/04/10 09:44:11;;;;;;;7.90;3.33;;;;;;;;;;5037837;28;20017;-68
2021/04/10 09:46:36;;;;;;;5.68;2.42;;;;;;;;;;5051712;28;20024;-67
2021/04/10 09:49:01;;;;;;;12.25;3.50;;;;;;;;;;5051602;28;20020;-68
2021/04/10 09:51:27;;;;;;;15.73;3.03;;;;;;;;;;5051786;28;20021;-67
2021/04/10 09:53:52;;;;;;;6.60;2.63;;;;;;;;;;5051511;28;20104;-68
2021/04/10 09:56:19;;;;;;;7.03;2.50;;;;;;;;;;5052845;28;20035;-68
2021/04/10 09:58:49;;;;;;;8.80;2.88;;;;;;;;;;5052609;28;20029;-68
2021/04/10 10:01:16;;;;;;;7.57;2.70;;;;;;;;;;5051435;28;20477;-68
2021/04/10 10:03:42;;;;;;;6.15;2.78;;;;;;;;;;5052778;28;20462;-68
2021/04/10 10:06:17;;;;;;;6.28;2.58;;;;;;;;;;5050736;28;20059;-67
2021/04/10 10:08:44;;;;;;;8.07;2.80;;;;;;;;;;5052396;28;20027;-67
2021/04/10 10:11:09;;;;;;;15.32;3.78;;;;;;;;;;5051336;28;20427;-68
2021/04/10 10:13:35;;;;;;;10.73;3.67;;;;;;;;;;5051162;28;20139;-67
2021/04/10 10:16:00;;;;;;;11.48;3.83;;;;;;;;;;5052501;28;20024;-67
2021/04/10 10:18:30;;;;;;;21.65;4.90;;;;;;;;;;5052845;28;20098;-68
2021/04/10 10:20:58;;;;;;;11.52;4.30;;;;;;;;;;5034564;28;20024;-68
2021/04/10 10:23:24;;;;;;;5.68;2.63;;;;;;;;;;5052553;28;20012;-68
2021/04/10 10:25:50;;;;;;;7.60;3.35;;;;;;;;;;5051312;28;20021;-68
2021/04/10 10:28:15;;;;;;;9.57;2.53;;;;;;;;;;5051178;28;20010;-68
2021/04/10 10:30:41;;;;;;;8.52;3.63;;;;;;;;;;5052371;28;20043;-67
2021/04/10 10:33:07;;;;;;;7.88;3.00;;;;;;;;;;5051335;28;20373;-67
2021/04/10 10:35:32;;;;;;;8.95;2.28;;;;;;;;;;5050796;28;20109;-67
2021/04/10 10:38:02;;;;;;;4.90;2.30;;;;;;;;;;5034305;28;20014;-68
2021/04/10 10:40:27;;;;;;;4.75;2.80;;;;;;;;;;5052552;28;20017;-68
2021/04/10 10:43:01;;;;;;;11.65;3.15;;;;;;;;;;5050841;28;20071;-68
2021/04/10 10:45:36;;;;;;;9.05;2.70;;;;;;;;;;5052342;28;20017;-68
2021/04/10 10:48:11;;;;;;;7.65;2.50;;;;;;;;;;5052297;28;20017;-67
2021/04/10 10:50:36;;;;;;;14.70;4.30;;;;;;;;;;5051533;28;20123;-67
2021/04/10 10:53:11;;;;;;;10.77;2.38;;;;;;;;;;5056176;28;20025;-67
2021/04/10 10:55:52;;;;;;;7.57;3.15;;;;;;;;;;5055160;28;20033;-67
2021/04/10 10:58:17;;;;;;;5.35;2.63;;;;;;;;;;5056511;28;20096;-67
2021/04/10 11:00:43;;;;;;;6.28;2.47;;;;;;;;;;5056029;28;20057;-67
2021/04/10 11:03:09;;;;;;;7.90;2.50;;;;;;;;;;5055107;28;20099;-67
2021/04/10 11:05:34;;;;;;;8.10;2.00;;;;;;;;;;5054019;28;20017;-67
2021/04/10 11:08:00;;;;;;;11.10;2.92;;;;;;;;;;5055904;28;20440;-67
2021/04/10 11:10:25;;;;;;;10.63;3.40;;;;;;;;;;5054844;28;20025;-68
2021/04/10 11:12:50;;;;;;;5.53;2.45;;;;;;;;;;5054402;28;20080;-67
2021/04/10 11:15:16;;;;;;;3.75;2.70;;;;;;;;;;5056022;28;20021;-67
2021/04/10 11:17:42;;;;;;;4.85;2.60;;;;;;;;;;5054465;28;20021;-67
2021/04/10 11:20:20;;;;;;;12.75;3.38;;;;;;;;;;5055731;28;20021;-67
2021/04/10 11:23:01;;;;;;;6.20;2.47;;;;;;;;;;5055599;28;20096;-68
2021/04/10 11:25:26;;;;;;;7.72;2.20;;;;;;;;;;5054407;28;20017;-68
2021/04/10 11:27:51;;;;;;;9.77;1.90;;;;;;;;;;5055486;28;20013;-68
2021/04/10 11:30:17;;;;;;;6.70;2.30;;;;;;;;;;5055426;28;20057;-69
2021/04/10 11:32:43;;;;;;;11.73;2.40;;;;;;;;;;5055486;28;20021;-68
2021/04/10 11:35:18;;;;;;;11.40;2.55;;;;;;;;;;5054179;28;20021;-69
2021/04/10 11:37:46;;;;;;;5.10;2.00;;;;;;;;;;5055503;28;20025;-69
2021/04/10 11:40:11;;;;;;;3.80;2.03;;;;;;;;;;5055173;28;20021;-69
2021/04/10 11:42:37;;;;;;;10.85;2.45;;;;;;;;;;5055164;28;20389;-69
2021/04/10 11:45:04;;;;;;;11.60;2.42;;;;;;;;;;5055212;28;20017;-69
2021/04/10 11:47:31;;;;;;;9.23;2.45;;;;;;;;;;5055529;28;20067;-69
2021/04/10 11:50:06;;;;;;;11.27;2.17;;;;;;;;;;5053920;28;20428;-69
2021/04/10 11:52:31;;;;;;;7.30;2.15;;;;;;;;;;5055287;28;20032;-69
2021/04/10 11:55:01;;;;;;;7.85;2.20;;;;;;;;;;5054979;28;20025;-69
2021/04/10 11:57:28;;;;;;;5.57;2.08;;;;;;;;;;5054936;28;20021;-69
2021/04/10 12:00:03;;;;;;;8.45;2.20;;;;;;;;;;5054988;28;20049;-69
2021/04/10 12:02:31;;;;;;;3.65;1.73;;;;;;;;;;5054722;28;20048;-69
2021/04/10 12:04:57;;;;;;;5.50;2.33;;;;;;;;;;5054537;28;20013;-69
2021/04/10 12:07:22;;;;;;;15.50;2.70;;;;;;;;;;5054388;28;20044;-69
2021/04/10 12:09:48;;;;;;;7.75;2.30;;;;;;;;;;5053479;28;20381;-69
2021/04/10 12:12:13;;;;;;;5.32;2.20;;;;;;;;;;5054731;28;20394;-69
2021/04/10 12:14:39;;;;;;;10.18;2.60;;;;;;;;;;5054315;28;20045;-69
2021/04/10 12:17:04;;;;;;;6.65;2.20;;;;;;;;;;5054640;28;20024;-69
2021/04/10 12:19:29;;;;;;;6.05;2.30;;;;;;;;;;5036983;28;20032;-69
2021/04/10 12:21:55;;;;;;;11.82;2.60;;;;;;;;;;5053507;28;20024;-69
2021/04/10 12:24:20;;;;;;;6.00;2.30;;;;;;;;;;5054569;28;20013;-69
2021/04/10 12:26:46;;;;;;;4.03;1.88;;;;;;;;;;5053015;28;20024;-70
2021/04/10 12:29:11;;;;;;;4.80;1.80;;;;;;;;;;5053163;28;20017;-69
2021/04/10 12:31:37;;;;;;;6.55;2.30;;;;;;;;;;5053370;28;20446;-69
2021/04/10 12:34:02;;;;;;;9.30;2.30;;;;;;;;;;5053095;28;20021;-69
2021/04/10 12:36:28;;;;;;;10.07;2.35;;;;;;;;;;5052881;28;20032;-69
2021/04/10 12:38:54;;;;;;;6.07;2.03;;;;;;;;;;5052827;28;20389;-69
2021/04/10 12:41:19;;;;;;;6.85;1.83;;;;;;;;;;5052964;28;20099;-69
2021/04/10 12:43:45;;;;;;;6.38;2.10;;;;;;;;;;5053152;28;20017;-69
2021/04/10 12:46:12;;;;;;;4.43;1.70;;;;;;;;;;5054181;28;20021;-69
2021/04/10 12:48:38;;;;;;;8.43;1.85;;;;;;;;;;5052726;28;20024;-69
2021/04/10 12:51:03;;;;;;;9.60;2.28;;;;;;;;;;5054021;28;20103;-69
2021/04/10 12:53:29;;;;;;;8.90;2.25;;;;;;;;;;5054139;28;20024;-69
2021/04/10 12:55:54;;;;;;;4.53;1.88;;;;;;;;;;5053859;28;20071;-69
2021/04/10 12:58:20;;;;;;;7.70;2.10;;;;;;;;;;5052744;28;20033;-69
2021/04/10 13:00:45;;;;;;;16.13;2.25;;;;;;;;;;5052493;28;20014;-69
2021/04/10 13:03:10;;;;;;;5.38;1.60;;;;;;;;;;5054009;28;20100;-69
2021/04/10 13:05:36;;;;;;;9.68;2.83;;;;;;;;;;5053525;28;20013;-69
2021/04/10 13:08:01;;;;;;;8.18;1.95;;;;;;;;;;5053739;28;20017;-69
2021/04/10 13:10:26;;;;;;;9.35;2.50;;;;;;;;;;5053629;28;20074;-69
2021/04/10 13:12:52;;;;;;;15.48;2.88;;;;;;;;;;5053198;28;20057;-69
2021/04/10 13:15:17;;;;;;;7.00;2.08;;;;;;;;;;5051444;28;20025;-69
2021/04/10 13:17:43;;;;;;;9.40;3.22;;;;;;;;;;5053599;28;20025;-69
2021/04/10 13:20:10;;;;;;;4.97;2.05;;;;;;;;;;5052254;28;20020;-70
2021/04/10 13:22:36;;;;;;;10.52;3.25;;;;;;;;;;5052133;28;20017;-69
2021/04/10 13:25:01;;;;;;;5.00;1.80;;;;;;;;;;5051863;28;20111;-69
2021/04/10 13:27:28;;;;;;;4.93;2.60;;;;;;;;;;5052173;28;20017;-69
2021/04/10 13:29:53;;;;;;;7.30;3.40;;;;;;;;;;5052118;28;20021;-69
2021/04/10 13:32:18;;;;;;;8.30;2.28;;;;;;;;;;5052110;28;20017;-69
2021/04/10 13:34:44;;;;;;;13.38;2.05;;;;;;;;;;5053021;28;20037;-69
2021/04/10 13:37:09;;;;;;;8.80;1.85;;;;;;;;;;5052416;28;20466;-67
2021/04/10 13:39:34;;;;;;;13.02;2.72;;;;;;;;;;5053307;28;20111;-67
2021/04/10 13:42:00;;;;;;;4.90;1.73;;;;;;;;;;5052947;28;20025;-67
2021/04/10 13:44:25;;;;;;;4.30;1.90;;;;;;;;;;5051798;28;20028;-68
2021/04/10 13:46:51;;;;;;;9.10;2.35;;;;;;;;;;5053117;28;20019;-68
2021/04/10 13:49:16;;;;;;;5.18;1.80;;;;;;;;;;5035145;28;20040;-67
2021/04/10 13:51:42;;;;;;;4.28;1.83;;;;;;;;;;5051869;28;20017;-68
2021/04/10 13:54:07;;;;;;;6.22;1.70;;;;;;;;;;5052651;28;20013;-68
2021/04/10 13:56:33;;;;;;;3.13;1.70;;;;;;;;;;5051590;28;20021;-68
2021/04/10 13:58:59;;;;;;;3.72;1.65;;;;;;;;;;5051413;28;20062;-68
2021/04/10 14:01:27;;;;;;;11.90;2.17;;;;;;;;;;5053066;28;20024;-68
2021/04/10 14:03:52;;;;;;;9.20;2.63;;;;;;;;;;5035219;28;20020;-68
2021/04/10 14:06:18;;;;;;;6.57;1.73;;;;;;;;;;5050973;28;20017;-68
2021/04/10 14:08:43;;;;;;;6.88;2.70;;;;;;;;;;5052648;28;20036;-68
2021/04/10 14:11:09;;;;;;;4.22;1.73;;;;;;;;;;5051289;28;20039;-68
2021/04/10 14:13:35;;;;;;;5.40;2.33;;;;;;;;;;5052633;28;20049;-68
2021/04/10 14:16:00;;;;;;;5.18;1.65;;;;;;;;;;5051397;28;20028;-68
2021/04/10 14:18:27;;;;;;;6.82;2.15;;;;;;;;;;5051549;28;20025;-69
2021/04/10 14:20:52;;;;;;;6.28;1.88;;;;;;;;;;5052362;28;20505;-69
2021/04/10 14:23:22;;;;;;;7.47;1.90;;;;;;;;;;5051416;28;20032;-68
2021/04/10 14:25:47;;;;;;;;;;;;;;;;;;5051477;28;20013;-68
2021/04/10 14:28:12;;;;;;;5.60;1.70;;;;;;;;;;5051166;28;19911;-69
2021/04/10 14:30:39;;;;;;;4.45;1.95;;;;;;;;;;5052351;28;20051;-68